sensor_id;sensor_type;location;lat;lon;timestamp;temperature;humidity
23259;DHT22;11798;51.528;7.240;2022-10-16T00:00:31;13.40;99.90
23259;DHT22;11798;51.528;7.240;2022-10-16T00:02:57;13.40;99.90
23259;DHT22;11798;51.528;7.240;2022-10-16T00:05:23;13.40;99.90
23259;DHT22;11798;51.528;7.240;2022-10-16T00:07:48;13.40;99.90
23259;DHT22;11798;51.528;7.240;2022-10-16T00:10:14;13.40;99.90
23259;DHT22;11798;51.528;7.240;2022-10-16T00:12:39;13.40;99.90
23259;DHT22;11798;51.528;7.240;2022-10-16T00:15:05;13.40;99.90
23259;DHT22;11798;51.528;7.240;2022-10-16T00:17:31;13.40;99.90
23259;DHT22;11798;51.528;7.240;2022-10-16T00:19:56;13.30;99.90
23259;DHT22;11798;51.528;7.240;2022-10-16T00:22:22;13.30;99.90
23259;DHT22;11798;51.528;7.240;2022-10-16T00:24:47;13.40;99.90
23259;DHT22;11798;51.528;7.240;2022-10-16T00:27:13;13.30;99.90
23259;DHT22;11798;51.528;7.240;2022-10-16T00:29:38;13.30;99.90
23259;DHT22;11798;51.528;7.240;2022-10-16T00:32:04;13.30;99.90
23259;DHT22;11798;51.528;7.240;2022-10-16T00:34:29;13.30;99.90
23259;DHT22;11798;51.528;7.240;2022-10-16T00:36:55;13.30;99.90
23259;DHT22;11798;51.528;7.240;2022-10-16T00:39:20;13.30;99.90
23259;DHT22;11798;51.528;7.240;2022-10-16T00:41:47;13.30;99.90
23259;DHT22;11798;51.528;7.240;2022-10-16T00:46:57;13.30;99.90
23259;DHT22;11798;51.528;7.240;2022-10-16T00:49:22;13.30;99.90
23259;DHT22;11798;51.528;7.240;2022-10-16T00:51:49;13.30;99.90
23259;DHT22;11798;51.528;7.240;2022-10-16T00:54:21;13.30;99.90
23259;DHT22;11798;51.528;7.240;2022-10-16T00:56:47;13.30;99.90
23259;DHT22;11798;51.528;7.240;2022-10-16T00:59:20;13.30;99.90
23259;DHT22;11798;51.528;7.240;2022-10-16T01:01:47;13.30;99.90
23259;DHT22;11798;51.528;7.240;2022-10-16T01:04:13;13.30;99.90
23259;DHT22;11798;51.528;7.240;2022-10-16T01:07:26;13.30;99.90
23259;DHT22;11798;51.528;7.240;2022-10-16T01:12:16;13.30;99.90
23259;DHT22;11798;51.528;7.240;2022-10-16T01:14:57;13.30;99.90
23259;DHT22;11798;51.528;7.240;2022-10-16T01:22:21;13.30;99.90
23259;DHT22;11798;51.528;7.240;2022-10-16T01:24:49;13.20;99.90
23259;DHT22;11798;51.528;7.240;2022-10-16T01:27:27;13.20;99.90
23259;DHT22;11798;51.528;7.240;2022-10-16T01:30:07;13.20;99.90
23259;DHT22;11798;51.528;7.240;2022-10-16T01:32:55;13.20;99.90
23259;DHT22;11798;51.528;7.240;2022-10-16T01:35:32;13.10;99.90
23259;DHT22;11798;51.528;7.240;2022-10-16T01:38:04;13.20;99.90
23259;DHT22;11798;51.528;7.240;2022-10-16T01:40:32;13.20;99.90
23259;DHT22;11798;51.528;7.240;2022-10-16T01:43:00;13.10;99.90
23259;DHT22;11798;51.528;7.240;2022-10-16T01:45:28;13.20;99.90
23259;DHT22;11798;51.528;7.240;2022-10-16T01:47:55;13.10;99.90
23259;DHT22;11798;51.528;7.240;2022-10-16T01:50:21;13.10;99.90
23259;DHT22;11798;51.528;7.240;2022-10-16T01:52:48;13.10;99.90
23259;DHT22;11798;51.528;7.240;2022-10-16T01:55:16;13.00;99.90
23259;DHT22;11798;51.528;7.240;2022-10-16T01:57:43;13.00;99.90
23259;DHT22;11798;51.528;7.240;2022-10-16T02:00:10;13.00;99.90
23259;DHT22;11798;51.528;7.240;2022-10-16T02:02:36;13.00;99.90
23259;DHT22;11798;51.528;7.240;2022-10-16T02:05:26;13.00;99.90
23259;DHT22;11798;51.528;7.240;2022-10-16T02:07:49;13.00;99.90
23259;DHT22;11798;51.528;7.240;2022-10-16T02:10:15;13.00;99.90
23259;DHT22;11798;51.528;7.240;2022-10-16T02:12:41;13.00;99.90
23259;DHT22;11798;51.528;7.240;2022-10-16T02:15:08;13.00;99.90
23259;DHT22;11798;51.528;7.240;2022-10-16T02:17:34;13.00;99.90
23259;DHT22;11798;51.528;7.240;2022-10-16T02:20:00;13.00;99.90
23259;DHT22;11798;51.528;7.240;2022-10-16T02:22:32;13.00;99.90
23259;DHT22;11798;51.528;7.240;2022-10-16T02:25:09;13.10;99.90
23259;DHT22;11798;51.528;7.240;2022-10-16T02:30:07;13.10;99.90
23259;DHT22;11798;51.528;7.240;2022-10-16T02:32:34;13.10;99.90
23259;DHT22;11798;51.528;7.240;2022-10-16T02:35:01;13.10;99.90
23259;DHT22;11798;51.528;7.240;2022-10-16T02:37:27;13.10;99.90
23259;DHT22;11798;51.528;7.240;2022-10-16T02:39:53;13.10;99.90
23259;DHT22;11798;51.528;7.240;2022-10-16T02:42:19;13.20;99.90
23259;DHT22;11798;51.528;7.240;2022-10-16T02:44:44;13.20;99.90
23259;DHT22;11798;51.528;7.240;2022-10-16T02:47:10;13.30;99.90
23259;DHT22;11798;51.528;7.240;2022-10-16T02:49:35;13.20;99.90
23259;DHT22;11798;51.528;7.240;2022-10-16T02:52:01;13.20;99.90
23259;DHT22;11798;51.528;7.240;2022-10-16T02:54:26;13.20;99.90
23259;DHT22;11798;51.528;7.240;2022-10-16T02:56:52;13.20;99.90
23259;DHT22;11798;51.528;7.240;2022-10-16T02:59:17;13.20;99.90
23259;DHT22;11798;51.528;7.240;2022-10-16T03:01:43;13.20;99.90
23259;DHT22;11798;51.528;7.240;2022-10-16T03:04:08;13.30;99.90
23259;DHT22;11798;51.528;7.240;2022-10-16T03:06:34;13.30;99.90
23259;DHT22;11798;51.528;7.240;2022-10-16T03:08:59;13.30;99.90
23259;DHT22;11798;51.528;7.240;2022-10-16T03:11:25;13.40;99.90
23259;DHT22;11798;51.528;7.240;2022-10-16T03:13:51;13.40;99.90
23259;DHT22;11798;51.528;7.240;2022-10-16T03:16:17;13.40;99.90
23259;DHT22;11798;51.528;7.240;2022-10-16T03:18:42;13.40;99.90
23259;DHT22;11798;51.528;7.240;2022-10-16T03:21:08;13.40;99.90
23259;DHT22;11798;51.528;7.240;2022-10-16T03:23:33;13.30;99.90
23259;DHT22;11798;51.528;7.240;2022-10-16T03:25:58;13.40;99.90
23259;DHT22;11798;51.528;7.240;2022-10-16T03:28:24;13.40;99.90
23259;DHT22;11798;51.528;7.240;2022-10-16T03:30:50;13.30;99.90
23259;DHT22;11798;51.528;7.240;2022-10-16T03:33:15;13.30;99.90
23259;DHT22;11798;51.528;7.240;2022-10-16T03:35:40;13.30;99.90
23259;DHT22;11798;51.528;7.240;2022-10-16T03:38:06;13.40;99.90
23259;DHT22;11798;51.528;7.240;2022-10-16T03:40:31;13.30;99.90
23259;DHT22;11798;51.528;7.240;2022-10-16T03:42:57;13.30;99.90
23259;DHT22;11798;51.528;7.240;2022-10-16T03:45:23;13.30;99.90
23259;DHT22;11798;51.528;7.240;2022-10-16T03:47:48;13.30;99.90
23259;DHT22;11798;51.528;7.240;2022-10-16T03:50:14;13.20;99.90
23259;DHT22;11798;51.528;7.240;2022-10-16T03:52:40;13.30;99.90
23259;DHT22;11798;51.528;7.240;2022-10-16T03:55:05;13.20;99.90
23259;DHT22;11798;51.528;7.240;2022-10-16T03:57:31;13.20;99.90
23259;DHT22;11798;51.528;7.240;2022-10-16T03:59:57;13.20;99.90
23259;DHT22;11798;51.528;7.240;2022-10-16T04:02:22;13.20;99.90
23259;DHT22;11798;51.528;7.240;2022-10-16T04:04:48;13.10;99.90
23259;DHT22;11798;51.528;7.240;2022-10-16T04:07:13;13.10;99.90
23259;DHT22;11798;51.528;7.240;2022-10-16T04:09:39;13.10;99.90
23259;DHT22;11798;51.528;7.240;2022-10-16T04:12:04;13.10;99.90
23259;DHT22;11798;51.528;7.240;2022-10-16T04:14:30;13.10;99.90
23259;DHT22;11798;51.528;7.240;2022-10-16T04:16:55;13.10;99.90
23259;DHT22;11798;51.528;7.240;2022-10-16T04:19:21;13.10;99.90
23259;DHT22;11798;51.528;7.240;2022-10-16T04:21:46;13.10;99.90
23259;DHT22;11798;51.528;7.240;2022-10-16T04:24:12;13.10;99.90
23259;DHT22;11798;51.528;7.240;2022-10-16T04:26:37;13.10;99.90
23259;DHT22;11798;51.528;7.240;2022-10-16T04:29:03;13.10;99.90
23259;DHT22;11798;51.528;7.240;2022-10-16T04:31:28;13.10;99.90
23259;DHT22;11798;51.528;7.240;2022-10-16T04:33:54;13.10;99.90
23259;DHT22;11798;51.528;7.240;2022-10-16T04:36:19;13.10;99.90
23259;DHT22;11798;51.528;7.240;2022-10-16T04:38:45;13.00;99.90
23259;DHT22;11798;51.528;7.240;2022-10-16T04:41:10;13.00;99.90
23259;DHT22;11798;51.528;7.240;2022-10-16T04:43:36;13.00;99.90
23259;DHT22;11798;51.528;7.240;2022-10-16T04:46:01;13.00;99.90
23259;DHT22;11798;51.528;7.240;2022-10-16T04:48:27;13.00;99.90
23259;DHT22;11798;51.528;7.240;2022-10-16T04:50:52;13.00;99.90
23259;DHT22;11798;51.528;7.240;2022-10-16T04:53:18;13.00;99.90
23259;DHT22;11798;51.528;7.240;2022-10-16T04:55:43;13.00;99.90
23259;DHT22;11798;51.528;7.240;2022-10-16T04:58:09;13.00;99.90
23259;DHT22;11798;51.528;7.240;2022-10-16T05:00:34;13.00;99.90
23259;DHT22;11798;51.528;7.240;2022-10-16T05:03:00;13.00;99.90
23259;DHT22;11798;51.528;7.240;2022-10-16T05:05:26;13.00;99.90
23259;DHT22;11798;51.528;7.240;2022-10-16T05:07:51;13.00;99.90
23259;DHT22;11798;51.528;7.240;2022-10-16T05:10:17;13.00;99.90
23259;DHT22;11798;51.528;7.240;2022-10-16T05:12:43;13.00;99.90
23259;DHT22;11798;51.528;7.240;2022-10-16T05:15:08;13.00;99.90
23259;DHT22;11798;51.528;7.240;2022-10-16T05:17:34;13.00;99.90
23259;DHT22;11798;51.528;7.240;2022-10-16T05:19:59;13.00;99.90
23259;DHT22;11798;51.528;7.240;2022-10-16T05:22:25;13.00;99.90
23259;DHT22;11798;51.528;7.240;2022-10-16T05:24:50;13.00;99.90
23259;DHT22;11798;51.528;7.240;2022-10-16T05:27:16;13.00;99.90
23259;DHT22;11798;51.528;7.240;2022-10-16T05:29:47;13.00;99.90
23259;DHT22;11798;51.528;7.240;2022-10-16T05:32:16;13.00;99.90
23259;DHT22;11798;51.528;7.240;2022-10-16T05:34:41;13.00;99.90
23259;DHT22;11798;51.528;7.240;2022-10-16T05:37:07;13.00;99.90
23259;DHT22;11798;51.528;7.240;2022-10-16T05:39:33;13.00;99.90
23259;DHT22;11798;51.528;7.240;2022-10-16T05:41:58;13.00;99.90
23259;DHT22;11798;51.528;7.240;2022-10-16T05:44:23;13.00;99.90
23259;DHT22;11798;51.528;7.240;2022-10-16T05:46:49;13.00;99.90
23259;DHT22;11798;51.528;7.240;2022-10-16T05:49:14;13.00;99.90
23259;DHT22;11798;51.528;7.240;2022-10-16T05:51:40;13.00;99.90
23259;DHT22;11798;51.528;7.240;2022-10-16T05:54:06;13.00;99.90
23259;DHT22;11798;51.528;7.240;2022-10-16T05:56:32;13.00;99.90
23259;DHT22;11798;51.528;7.240;2022-10-16T05:58:57;13.00;99.90
23259;DHT22;11798;51.528;7.240;2022-10-16T06:01:23;13.00;99.90
23259;DHT22;11798;51.528;7.240;2022-10-16T06:03:50;13.00;99.90
23259;DHT22;11798;51.528;7.240;2022-10-16T06:06:17;13.00;99.90
23259;DHT22;11798;51.528;7.240;2022-10-16T06:08:43;13.00;99.90
23259;DHT22;11798;51.528;7.240;2022-10-16T06:11:09;13.00;99.90
23259;DHT22;11798;51.528;7.240;2022-10-16T06:13:35;13.00;99.90
23259;DHT22;11798;51.528;7.240;2022-10-16T06:16:01;13.00;99.90
23259;DHT22;11798;51.528;7.240;2022-10-16T06:18:27;13.00;99.90
23259;DHT22;11798;51.528;7.240;2022-10-16T06:20:53;13.00;99.90
23259;DHT22;11798;51.528;7.240;2022-10-16T06:23:18;13.00;99.90
23259;DHT22;11798;51.528;7.240;2022-10-16T06:25:44;13.00;99.90
23259;DHT22;11798;51.528;7.240;2022-10-16T06:28:09;12.90;99.90
23259;DHT22;11798;51.528;7.240;2022-10-16T06:30:35;13.00;99.90
23259;DHT22;11798;51.528;7.240;2022-10-16T06:33:00;13.00;99.90
23259;DHT22;11798;51.528;7.240;2022-10-16T06:35:26;13.00;99.90
23259;DHT22;11798;51.528;7.240;2022-10-16T06:37:52;13.00;99.90
23259;DHT22;11798;51.528;7.240;2022-10-16T06:40:18;13.00;99.90
23259;DHT22;11798;51.528;7.240;2022-10-16T06:42:43;13.00;99.90
23259;DHT22;11798;51.528;7.240;2022-10-16T06:45:09;13.00;99.90
23259;DHT22;11798;51.528;7.240;2022-10-16T06:47:34;13.00;99.90
23259;DHT22;11798;51.528;7.240;2022-10-16T06:50:00;13.00;99.90
23259;DHT22;11798;51.528;7.240;2022-10-16T06:52:28;13.10;99.90
23259;DHT22;11798;51.528;7.240;2022-10-16T06:54:53;13.10;99.90
23259;DHT22;11798;51.528;7.240;2022-10-16T06:57:19;13.10;99.90
23259;DHT22;11798;51.528;7.240;2022-10-16T06:59:44;13.00;99.90
23259;DHT22;11798;51.528;7.240;2022-10-16T07:02:10;13.10;99.90
23259;DHT22;11798;51.528;7.240;2022-10-16T07:04:35;13.10;99.90
23259;DHT22;11798;51.528;7.240;2022-10-16T07:07:01;13.10;99.90
23259;DHT22;11798;51.528;7.240;2022-10-16T07:09:26;13.10;99.90
23259;DHT22;11798;51.528;7.240;2022-10-16T07:11:52;13.10;99.90
23259;DHT22;11798;51.528;7.240;2022-10-16T07:14:19;13.10;99.90
23259;DHT22;11798;51.528;7.240;2022-10-16T07:16:45;13.10;99.90
23259;DHT22;11798;51.528;7.240;2022-10-16T07:19:11;13.20;99.90
23259;DHT22;11798;51.528;7.240;2022-10-16T07:21:38;13.10;99.90
23259;DHT22;11798;51.528;7.240;2022-10-16T07:24:05;13.20;99.90
23259;DHT22;11798;51.528;7.240;2022-10-16T07:26:33;13.20;99.90
23259;DHT22;11798;51.528;7.240;2022-10-16T07:28:59;13.20;99.90
23259;DHT22;11798;51.528;7.240;2022-10-16T07:31:24;13.20;99.90
23259;DHT22;11798;51.528;7.240;2022-10-16T07:33:50;13.20;99.90
23259;DHT22;11798;51.528;7.240;2022-10-16T07:36:17;13.20;99.90
23259;DHT22;11798;51.528;7.240;2022-10-16T07:38:43;13.20;99.90
23259;DHT22;11798;51.528;7.240;2022-10-16T07:41:11;13.20;99.90
23259;DHT22;11798;51.528;7.240;2022-10-16T07:43:37;13.30;99.90
23259;DHT22;11798;51.528;7.240;2022-10-16T07:46:02;13.40;99.90
23259;DHT22;11798;51.528;7.240;2022-10-16T07:48:29;13.40;99.90
23259;DHT22;11798;51.528;7.240;2022-10-16T07:50:58;13.50;99.90
23259;DHT22;11798;51.528;7.240;2022-10-16T07:53:24;13.50;99.90
23259;DHT22;11798;51.528;7.240;2022-10-16T07:55:50;13.60;99.90
23259;DHT22;11798;51.528;7.240;2022-10-16T07:58:15;13.60;99.90
23259;DHT22;11798;51.528;7.240;2022-10-16T08:00:41;13.70;99.90
23259;DHT22;11798;51.528;7.240;2022-10-16T08:03:07;13.80;99.90
23259;DHT22;11798;51.528;7.240;2022-10-16T08:05:33;13.90;99.90
23259;DHT22;11798;51.528;7.240;2022-10-16T08:07:59;14.00;99.90
23259;DHT22;11798;51.528;7.240;2022-10-16T08:10:25;14.00;99.90
23259;DHT22;11798;51.528;7.240;2022-10-16T08:12:51;14.10;99.90
23259;DHT22;11798;51.528;7.240;2022-10-16T08:15:17;14.20;99.90
23259;DHT22;11798;51.528;7.240;2022-10-16T08:17:43;14.30;99.90
23259;DHT22;11798;51.528;7.240;2022-10-16T08:20:09;14.30;99.90
23259;DHT22;11798;51.528;7.240;2022-10-16T08:22:34;14.40;99.90
23259;DHT22;11798;51.528;7.240;2022-10-16T08:25:00;14.50;99.90
23259;DHT22;11798;51.528;7.240;2022-10-16T08:27:30;14.50;99.90
23259;DHT22;11798;51.528;7.240;2022-10-16T08:29:56;14.60;99.90
23259;DHT22;11798;51.528;7.240;2022-10-16T08:32:21;14.70;99.90
23259;DHT22;11798;51.528;7.240;2022-10-16T08:34:46;14.70;99.90
23259;DHT22;11798;51.528;7.240;2022-10-16T08:37:12;14.70;99.90
23259;DHT22;11798;51.528;7.240;2022-10-16T08:39:38;14.80;99.90
23259;DHT22;11798;51.528;7.240;2022-10-16T08:42:11;14.80;99.90
23259;DHT22;11798;51.528;7.240;2022-10-16T08:49:35;15.00;99.90
23259;DHT22;11798;51.528;7.240;2022-10-16T08:52:02;15.00;99.90
23259;DHT22;11798;51.528;7.240;2022-10-16T08:54:37;15.10;99.90
23259;DHT22;11798;51.528;7.240;2022-10-16T08:57:09;15.20;99.90
23259;DHT22;11798;51.528;7.240;2022-10-16T08:59:36;15.10;99.90
23259;DHT22;11798;51.528;7.240;2022-10-16T09:02:02;15.20;99.90
23259;DHT22;11798;51.528;7.240;2022-10-16T09:04:52;15.20;99.90
23259;DHT22;11798;51.528;7.240;2022-10-16T09:07:32;15.30;99.90
23259;DHT22;11798;51.528;7.240;2022-10-16T09:10:03;15.40;99.90
23259;DHT22;11798;51.528;7.240;2022-10-16T09:12:40;15.40;99.90
23259;DHT22;11798;51.528;7.240;2022-10-16T09:15:29;15.50;99.90
23259;DHT22;11798;51.528;7.240;2022-10-16T09:23:40;15.60;99.90
23259;DHT22;11798;51.528;7.240;2022-10-16T09:25:42;15.70;99.90
23259;DHT22;11798;51.528;7.240;2022-10-16T09:28:08;15.70;99.90
23259;DHT22;11798;51.528;7.240;2022-10-16T09:30:34;15.70;99.90
23259;DHT22;11798;51.528;7.240;2022-10-16T09:33:00;15.80;99.90
23259;DHT22;11798;51.528;7.240;2022-10-16T09:35:30;15.80;99.90
23259;DHT22;11798;51.528;7.240;2022-10-16T09:37:56;15.70;99.90
23259;DHT22;11798;51.528;7.240;2022-10-16T09:40:28;15.80;99.90
23259;DHT22;11798;51.528;7.240;2022-10-16T09:42:56;15.80;99.90
23259;DHT22;11798;51.528;7.240;2022-10-16T09:45:23;15.80;99.90
23259;DHT22;11798;51.528;7.240;2022-10-16T09:47:48;15.90;99.90
23259;DHT22;11798;51.528;7.240;2022-10-16T09:50:27;16.00;99.90
23259;DHT22;11798;51.528;7.240;2022-10-16T09:53:03;16.10;99.90
23259;DHT22;11798;51.528;7.240;2022-10-16T09:55:28;16.10;99.90
23259;DHT22;11798;51.528;7.240;2022-10-16T09:57:54;16.10;99.90
23259;DHT22;11798;51.528;7.240;2022-10-16T10:00:20;16.10;99.90
23259;DHT22;11798;51.528;7.240;2022-10-16T10:02:46;16.20;99.90
23259;DHT22;11798;51.528;7.240;2022-10-16T10:05:20;16.20;99.90
23259;DHT22;11798;51.528;7.240;2022-10-16T10:07:52;16.30;99.90
23259;DHT22;11798;51.528;7.240;2022-10-16T10:10:20;16.30;99.90
23259;DHT22;11798;51.528;7.240;2022-10-16T10:12:46;16.30;99.90
23259;DHT22;11798;51.528;7.240;2022-10-16T10:15:11;16.50;99.90
23259;DHT22;11798;51.528;7.240;2022-10-16T10:17:48;16.50;99.90
23259;DHT22;11798;51.528;7.240;2022-10-16T10:22:48;16.60;99.90
23259;DHT22;11798;51.528;7.240;2022-10-16T10:25:19;16.70;99.90
23259;DHT22;11798;51.528;7.240;2022-10-16T10:38:12;16.80;99.90
23259;DHT22;11798;51.528;7.240;2022-10-16T10:43:13;17.00;99.90
23259;DHT22;11798;51.528;7.240;2022-10-16T10:45:46;17.10;99.90
23259;DHT22;11798;51.528;7.240;2022-10-16T10:48:17;17.20;99.90
23259;DHT22;11798;51.528;7.240;2022-10-16T10:50:49;17.30;99.90
23259;DHT22;11798;51.528;7.240;2022-10-16T10:56:04;17.10;99.90
23259;DHT22;11798;51.528;7.240;2022-10-16T10:58:44;17.00;99.90
23259;DHT22;11798;51.528;7.240;2022-10-16T11:01:16;17.20;99.90
23259;DHT22;11798;51.528;7.240;2022-10-16T11:09:00;17.30;99.90
23259;DHT22;11798;51.528;7.240;2022-10-16T11:11:30;17.30;99.90
23259;DHT22;11798;51.528;7.240;2022-10-16T11:13:58;17.40;99.90
23259;DHT22;11798;51.528;7.240;2022-10-16T11:17:00;17.40;99.90
23259;DHT22;11798;51.528;7.240;2022-10-16T11:21:56;17.60;99.90
23259;DHT22;11798;51.528;7.240;2022-10-16T11:24:23;17.60;99.90
23259;DHT22;11798;51.528;7.240;2022-10-16T11:26:49;17.60;99.90
23259;DHT22;11798;51.528;7.240;2022-10-16T11:29:23;17.60;99.90
23259;DHT22;11798;51.528;7.240;2022-10-16T11:31:52;17.70;99.90
23259;DHT22;11798;51.528;7.240;2022-10-16T11:34:28;17.60;99.90
23259;DHT22;11798;51.528;7.240;2022-10-16T11:37:05;17.50;99.90
23259;DHT22;11798;51.528;7.240;2022-10-16T11:39:33;17.60;99.90
23259;DHT22;11798;51.528;7.240;2022-10-16T11:42:12;17.70;99.90
23259;DHT22;11798;51.528;7.240;2022-10-16T11:44:53;17.80;99.90
23259;DHT22;11798;51.528;7.240;2022-10-16T11:49:46;17.70;99.90
23259;DHT22;11798;51.528;7.240;2022-10-16T11:52:25;17.80;99.90
23259;DHT22;11798;51.528;7.240;2022-10-16T11:54:54;17.80;99.90
23259;DHT22;11798;51.528;7.240;2022-10-16T11:57:26;17.70;99.90
23259;DHT22;11798;51.528;7.240;2022-10-16T11:59:55;17.70;99.90
23259;DHT22;11798;51.528;7.240;2022-10-16T12:04:55;17.70;99.90
23259;DHT22;11798;51.528;7.240;2022-10-16T12:07:27;17.70;99.90
23259;DHT22;11798;51.528;7.240;2022-10-16T12:09:53;17.60;99.90
23259;DHT22;11798;51.528;7.240;2022-10-16T12:12:37;17.60;99.90
23259;DHT22;11798;51.528;7.240;2022-10-16T12:15:18;17.60;99.90
23259;DHT22;11798;51.528;7.240;2022-10-16T12:17:43;17.60;99.90
23259;DHT22;11798;51.528;7.240;2022-10-16T12:22:59;17.70;99.90
23259;DHT22;11798;51.528;7.240;2022-10-16T12:25:33;17.70;99.90
23259;DHT22;11798;51.528;7.240;2022-10-16T12:28:00;17.70;99.90
23259;DHT22;11798;51.528;7.240;2022-10-16T12:30:27;17.60;99.90
23259;DHT22;11798;51.528;7.240;2022-10-16T12:32:53;17.60;99.90
23259;DHT22;11798;51.528;7.240;2022-10-16T12:35:21;17.70;99.90
23259;DHT22;11798;51.528;7.240;2022-10-16T12:37:47;17.70;99.90
23259;DHT22;11798;51.528;7.240;2022-10-16T12:40:15;17.70;99.90
23259;DHT22;11798;51.528;7.240;2022-10-16T12:42:41;17.70;99.90
23259;DHT22;11798;51.528;7.240;2022-10-16T12:47:49;17.70;99.90
23259;DHT22;11798;51.528;7.240;2022-10-16T12:52:50;17.80;99.90
23259;DHT22;11798;51.528;7.240;2022-10-16T12:55:16;17.80;99.90
23259;DHT22;11798;51.528;7.240;2022-10-16T13:17:58;17.80;99.90
23259;DHT22;11798;51.528;7.240;2022-10-16T13:20:35;17.80;99.90
23259;DHT22;11798;51.528;7.240;2022-10-16T13:26:02;17.70;99.90
23259;DHT22;11798;51.528;7.240;2022-10-16T13:28:32;17.70;99.90
23259;DHT22;11798;51.528;7.240;2022-10-16T13:30:58;17.70;99.90
23259;DHT22;11798;51.528;7.240;2022-10-16T13:35:53;17.70;99.90
23259;DHT22;11798;51.528;7.240;2022-10-16T13:38:20;17.70;99.90
23259;DHT22;11798;51.528;7.240;2022-10-16T13:40:56;17.60;99.90
23259;DHT22;11798;51.528;7.240;2022-10-16T13:43:23;17.60;99.90
23259;DHT22;11798;51.528;7.240;2022-10-16T13:45:56;17.60;99.90
23259;DHT22;11798;51.528;7.240;2022-10-16T13:48:22;17.60;99.90
23259;DHT22;11798;51.528;7.240;2022-10-16T13:51:04;17.50;99.90
23259;DHT22;11798;51.528;7.240;2022-10-16T13:53:31;17.50;99.90
23259;DHT22;11798;51.528;7.240;2022-10-16T13:55:57;17.50;99.90
23259;DHT22;11798;51.528;7.240;2022-10-16T13:58:23;17.50;99.90
23259;DHT22;11798;51.528;7.240;2022-10-16T14:01:01;17.50;99.90
23259;DHT22;11798;51.528;7.240;2022-10-16T14:03:28;17.50;99.90
23259;DHT22;11798;51.528;7.240;2022-10-16T14:05:55;17.60;99.90
23259;DHT22;11798;51.528;7.240;2022-10-16T14:08:22;17.60;99.90
23259;DHT22;11798;51.528;7.240;2022-10-16T14:10:52;17.70;99.90
23259;DHT22;11798;51.528;7.240;2022-10-16T14:13:19;17.70;99.90
23259;DHT22;11798;51.528;7.240;2022-10-16T14:15:46;17.70;99.90
23259;DHT22;11798;51.528;7.240;2022-10-16T14:18:19;17.80;99.90
23259;DHT22;11798;51.528;7.240;2022-10-16T14:20:45;17.80;99.90
23259;DHT22;11798;51.528;7.240;2022-10-16T14:23:38;17.70;99.90
23259;DHT22;11798;51.528;7.240;2022-10-16T14:28:36;17.60;99.90
23259;DHT22;11798;51.528;7.240;2022-10-16T14:31:13;17.50;99.90
23259;DHT22;11798;51.528;7.240;2022-10-16T14:33:42;17.50;99.90
23259;DHT22;11798;51.528;7.240;2022-10-16T14:36:11;17.40;99.90
23259;DHT22;11798;51.528;7.240;2022-10-16T14:38:38;17.40;99.90
23259;DHT22;11798;51.528;7.240;2022-10-16T14:41:03;17.40;99.90
23259;DHT22;11798;51.528;7.240;2022-10-16T14:43:33;17.40;99.90
23259;DHT22;11798;51.528;7.240;2022-10-16T14:45:59;17.40;99.90
23259;DHT22;11798;51.528;7.240;2022-10-16T14:48:26;17.40;99.90
23259;DHT22;11798;51.528;7.240;2022-10-16T14:50:52;17.40;99.90
23259;DHT22;11798;51.528;7.240;2022-10-16T14:53:17;17.40;99.90
23259;DHT22;11798;51.528;7.240;2022-10-16T14:55:43;17.40;99.90
23259;DHT22;11798;51.528;7.240;2022-10-16T14:58:26;17.50;99.90
23259;DHT22;11798;51.528;7.240;2022-10-16T15:00:52;17.50;99.90
23259;DHT22;11798;51.528;7.240;2022-10-16T15:03:17;17.50;99.90
23259;DHT22;11798;51.528;7.240;2022-10-16T15:05:43;17.60;99.90
23259;DHT22;11798;51.528;7.240;2022-10-16T15:08:09;17.60;99.90
23259;DHT22;11798;51.528;7.240;2022-10-16T15:10:38;17.60;99.90
23259;DHT22;11798;51.528;7.240;2022-10-16T15:13:03;17.50;99.90
23259;DHT22;11798;51.528;7.240;2022-10-16T15:15:36;17.50;99.90
23259;DHT22;11798;51.528;7.240;2022-10-16T15:18:02;17.50;99.90
23259;DHT22;11798;51.528;7.240;2022-10-16T15:20:29;17.50;99.90
23259;DHT22;11798;51.528;7.240;2022-10-16T15:22:56;17.40;99.90
23259;DHT22;11798;51.528;7.240;2022-10-16T15:25:41;17.40;99.90
23259;DHT22;11798;51.528;7.240;2022-10-16T15:28:08;17.30;99.90
23259;DHT22;11798;51.528;7.240;2022-10-16T15:30:33;17.20;99.90
23259;DHT22;11798;51.528;7.240;2022-10-16T15:32:59;17.20;99.90
23259;DHT22;11798;51.528;7.240;2022-10-16T15:35:25;17.10;99.90
23259;DHT22;11798;51.528;7.240;2022-10-16T15:37:50;17.10;99.90
23259;DHT22;11798;51.528;7.240;2022-10-16T15:40:16;17.00;99.90
23259;DHT22;11798;51.528;7.240;2022-10-16T15:42:42;17.10;99.90
23259;DHT22;11798;51.528;7.240;2022-10-16T15:45:08;17.00;99.90
23259;DHT22;11798;51.528;7.240;2022-10-16T15:47:34;17.00;99.90
23259;DHT22;11798;51.528;7.240;2022-10-16T15:49:59;16.90;99.90
23259;DHT22;11798;51.528;7.240;2022-10-16T15:52:25;16.90;99.90
23259;DHT22;11798;51.528;7.240;2022-10-16T15:54:50;16.90;99.90
23259;DHT22;11798;51.528;7.240;2022-10-16T15:57:16;16.90;99.90
23259;DHT22;11798;51.528;7.240;2022-10-16T15:59:41;16.90;99.90
23259;DHT22;11798;51.528;7.240;2022-10-16T16:02:08;16.80;99.90
23259;DHT22;11798;51.528;7.240;2022-10-16T16:04:33;16.70;99.90
23259;DHT22;11798;51.528;7.240;2022-10-16T16:06:59;16.70;99.90
23259;DHT22;11798;51.528;7.240;2022-10-16T16:09:24;16.70;99.90
23259;DHT22;11798;51.528;7.240;2022-10-16T16:11:50;16.70;99.90
23259;DHT22;11798;51.528;7.240;2022-10-16T16:14:17;16.70;99.90
23259;DHT22;11798;51.528;7.240;2022-10-16T16:16:43;16.70;99.90
23259;DHT22;11798;51.528;7.240;2022-10-16T16:19:08;16.60;99.90
23259;DHT22;11798;51.528;7.240;2022-10-16T16:21:34;16.50;99.90
23259;DHT22;11798;51.528;7.240;2022-10-16T16:24:00;16.50;99.90
23259;DHT22;11798;51.528;7.240;2022-10-16T16:28:51;16.40;99.90
23259;DHT22;11798;51.528;7.240;2022-10-16T16:31:17;16.40;99.90
23259;DHT22;11798;51.528;7.240;2022-10-16T16:33:42;16.30;99.90
23259;DHT22;11798;51.528;7.240;2022-10-16T16:36:08;16.30;99.90
23259;DHT22;11798;51.528;7.240;2022-10-16T16:38:34;16.20;99.90
23259;DHT22;11798;51.528;7.240;2022-10-16T16:41:00;16.10;99.90
23259;DHT22;11798;51.528;7.240;2022-10-16T16:43:35;16.10;99.90
23259;DHT22;11798;51.528;7.240;2022-10-16T16:46:01;16.10;99.90
23259;DHT22;11798;51.528;7.240;2022-10-16T16:48:26;16.00;99.90
23259;DHT22;11798;51.528;7.240;2022-10-16T16:50:52;16.00;99.90
23259;DHT22;11798;51.528;7.240;2022-10-16T16:53:17;16.00;99.90
23259;DHT22;11798;51.528;7.240;2022-10-16T16:55:43;16.00;99.90
23259;DHT22;11798;51.528;7.240;2022-10-16T16:58:08;15.90;99.90
23259;DHT22;11798;51.528;7.240;2022-10-16T17:00:34;15.90;99.90
23259;DHT22;11798;51.528;7.240;2022-10-16T17:02:59;15.90;99.90
23259;DHT22;11798;51.528;7.240;2022-10-16T17:05:25;15.80;99.90